Time;durP1;ratioP1;P1;durP2;ratioP2;P2;SDS_P1;SDS_P2;PMS_P1;PMS_P2;Temp;Humidity;BMP_temperature;BMP_pressure;BME280_temperature;BME280_humidity;BME280_pressure;Samples;Min_cycle;Max_cycle;Signal;HPM_P1;HPM_P2
2022/10/05 00:00:19;;;;;;;0.32;0.20;;;23.30;55.50;;;;;;5059580;28;20051;-48
2022/10/05 00:02:48;;;;;;;0.30;0.10;;;23.30;55.40;;;;;;5049291;28;20052;-50
2022/10/05 00:05:29;;;;;;;0.90;0.30;;;23.30;55.40;;;;;;5052127;28;20041;-50
2022/10/05 00:08:01;;;;;;;0.68;0.20;;;23.30;55.40;;;;;;5047616;28;20366;-48
2022/10/05 00:10:29;;;;;;;0.88;0.20;;;23.30;55.40;;;;;;5048144;28;20501;-49
2022/10/05 00:12:56;;;;;;;0.15;0.10;;;23.20;55.40;;;;;;5049360;28;20044;-50
2022/10/05 00:15:23;;;;;;;0.22;0.22;;;23.20;55.40;;;;;;5054389;28;20111;-48
2022/10/05 00:17:52;;;;;;;0.70;0.10;;;23.30;56.00;;;;;;5064731;28;20041;-49
2022/10/05 00:20:22;;;;;;;0.30;0.13;;;23.20;55.40;;;;;;5048718;28;20116;-49
2022/10/05 00:22:55;;;;;;;0.40;0.30;;;23.20;55.40;;;;;;5067660;28;20041;-48
2022/10/05 00:25:22;;;;;;;0.77;0.20;;;23.20;55.40;;;;;;5067893;28;20047;-48
2022/10/05 00:27:56;;;;;;;0.15;0.10;;;23.20;55.40;;;;;;5048540;28;20040;-48
2022/10/05 00:30:25;;;;;;;1.38;0.20;;;23.20;55.50;;;;;;5043185;28;20051;-49
2022/10/05 00:32:53;;;;;;;1.15;0.20;;;23.20;55.50;;;;;;5048566;28;20053;-50
2022/10/05 00:35:23;;;;;;;0.70;0.40;;;23.10;55.40;;;;;;5049364;28;20076;-49
2022/10/05 00:37:53;;;;;;;0.30;0.30;;;23.10;55.50;;;;;;5066251;28;20055;-48
2022/10/05 00:40:35;;;;;;;0.52;0.20;;;23.10;55.50;;;;;;5058358;28;20102;-49
2022/10/05 00:43:30;;;;;;;0.73;0.20;;;23.10;55.60;;;;;;5048330;28;20382;-49
2022/10/05 00:46:06;;;;;;;0.50;0.40;;;23.10;55.60;;;;;;5050261;28;20197;-48
2022/10/05 00:48:45;;;;;;;1.08;0.40;;;23.10;55.60;;;;;;5058661;28;20045;-50
2022/10/05 00:51:25;;;;;;;0.63;0.20;;;23.10;55.60;;;;;;5050317;28;20048;-51
2022/10/05 00:54:10;;;;;;;0.35;0.30;;;23.10;55.60;;;;;;5062223;28;20045;-48
2022/10/05 00:56:56;;;;;;;0.50;0.50;;;23.10;56.20;;;;;;5067675;28;20901;-49
2022/10/05 00:59:39;;;;;;;0.30;0.30;;;23.10;55.60;;;;;;5067003;28;20055;-48
2022/10/05 01:02:12;;;;;;;1.85;0.20;;;23.10;55.70;;;;;;5064647;28;20044;-50
2022/10/05 01:04:47;;;;;;;0.68;0.60;;;23.00;55.70;;;;;;5040178;28;20044;-48
2022/10/05 01:07:21;;;;;;;1.50;0.60;;;23.00;55.70;;;;;;5044188;28;20116;-47
2022/10/05 01:09:56;;;;;;;0.70;0.20;;;23.00;55.70;;;;;;5047763;28;20060;-50
2022/10/05 01:12:32;;;;;;;0.98;0.40;;;23.00;55.70;;;;;;5057320;28;20044;-48
2022/10/05 01:15:07;;;;;;;3.17;0.88;;;23.00;55.70;;;;;;5067428;28;20072;-48
2022/10/05 01:17:40;;;;;;;1.27;0.40;;;22.90;55.70;;;;;;5063781;28;20037;-51
2022/10/05 01:20:28;;;;;;;2.03;0.63;;;22.90;55.70;;;;;;5047415;28;20140;-49
2022/10/05 01:23:37;;;;;;;3.15;1.35;;;23.00;55.70;;;;;;5028740;28;20038;-51
2022/10/05 01:26:19;;;;;;;1.23;0.60;;;22.90;55.70;;;;;;4989143;28;20061;-50
2022/10/05 01:28:53;;;;;;;0.80;0.55;;;22.90;55.80;;;;;;5021312;28;20059;-49
2022/10/05 01:31:28;;;;;;;1.10;0.50;;;22.90;55.90;;;;;;5023983;28;20061;-50
2022/10/05 01:34:07;;;;;;;2.85;0.63;;;22.90;55.90;;;;;;5017249;28;20108;-51
2022/10/05 01:36:44;;;;;;;1.70;1.02;;;22.90;55.90;;;;;;4982148;28;20073;-50
2022/10/05 01:39:21;;;;;;;0.95;0.70;;;22.80;55.90;;;;;;5017209;28;20064;-50
2022/10/05 01:41:55;;;;;;;0.68;0.38;;;22.90;56.00;;;;;;5017325;28;20508;-51
2022/10/05 01:44:32;;;;;;;0.30;0.30;;;22.90;56.10;;;;;;5024195;28;20430;-48
2022/10/05 01:47:06;;;;;;;0.90;0.57;;;22.90;56.00;;;;;;5019378;28;20081;-52
2022/10/05 01:49:37;;;;;;;0.52;0.50;;;22.80;56.00;;;;;;5016584;28;20095;-52
2022/10/05 01:52:17;;;;;;;0.75;0.75;;;22.80;56.00;;;;;;5024319;28;20042;-52
2022/10/05 01:54:57;;;;;;;2.33;0.50;;;22.90;56.00;;;;;;5021908;28;20159;-49
2022/10/05 01:57:32;;;;;;;1.67;0.40;;;22.80;55.90;;;;;;5022276;28;20660;-50
2022/10/05 02:00:07;;;;;;;1.42;0.45;;;22.80;56.00;;;;;;5001463;28;20129;-50
2022/10/05 02:02:47;;;;;;;0.68;0.60;;;22.80;55.90;;;;;;5062831;28;20052;-51
2022/10/05 02:05:19;;;;;;;1.20;0.45;;;22.80;55.90;;;;;;5040818;28;20081;-49
2022/10/05 02:07:51;;;;;;;4.25;1.02;;;22.80;55.90;;;;;;5055035;28;20080;-51
2022/10/05 02:10:23;;;;;;;1.90;0.70;;;22.80;55.90;;;;;;5050856;28;20072;-48
2022/10/05 02:12:55;;;;;;;0.70;0.50;;;22.80;55.90;;;;;;5047669;28;20576;-50
2022/10/05 02:15:28;;;;;;;1.98;1.23;;;22.80;55.90;;;;;;5048043;28;20037;-49
2022/10/05 02:17:59;;;;;;;1.10;0.35;;;22.80;55.90;;;;;;5051097;28;20124;-50
2022/10/05 02:20:29;;;;;;;2.17;0.25;;;22.80;55.80;;;;;;5045840;28;20552;-49
2022/10/05 02:23:02;;;;;;;2.80;0.32;;;22.80;55.80;;;;;;5047565;28;20826;-52
2022/10/05 02:25:33;;;;;;;0.75;0.52;;;22.80;55.70;;;;;;5063894;28;20047;-53
2022/10/05 02:28:05;;;;;;;1.95;0.73;;;22.80;55.70;;;;;;5058473;28;20047;-48
2022/10/05 02:30:40;;;;;;;2.83;0.38;;;22.80;55.70;;;;;;5064786;28;20044;-49
2022/10/05 02:33:12;;;;;;;0.63;0.45;;;22.80;55.60;;;;;;5067062;28;20083;-52
2022/10/05 02:35:39;;;;;;;1.05;0.43;;;22.80;55.60;;;;;;5063229;28;20090;-48
2022/10/05 02:38:14;;;;;;;0.80;0.40;;;22.80;55.50;;;;;;5068613;28;20041;-52
2022/10/05 02:40:52;;;;;;;0.70;0.30;;;22.80;55.50;;;;;;5069996;28;20197;-48
2022/10/05 02:43:27;;;;;;;1.75;0.25;;;22.80;55.40;;;;;;5068611;28;20753;-52
2022/10/05 02:46:07;;;;;;;1.20;0.40;;;22.80;55.40;;;;;;5068119;28;20094;-53
2022/10/05 02:48:44;;;;;;;0.30;0.30;;;22.80;55.40;;;;;;5050811;28;20865;-52
2022/10/05 02:51:20;;;;;;;1.08;0.30;;;22.80;55.30;;;;;;5062632;28;20442;-51
2022/10/05 02:53:51;;;;;;;;;;;22.80;55.30;;;;;;5057701;28;20080;-49
2022/10/05 02:56:26;;;;;;;1.67;0.40;;;22.70;55.20;;;;;;5062030;28;20019;-52
2022/10/05 02:59:00;;;;;;;0.75;0.25;;;22.70;55.40;;;;;;5060440;28;20598;-52
2022/10/05 03:01:35;;;;;;;1.55;0.57;;;22.70;55.30;;;;;;5062232;28;20098;-49
2022/10/05 03:04:14;;;;;;;0.57;0.20;;;22.70;55.30;;;;;;5069149;28;20579;-52
2022/10/05 03:06:47;;;;;;;3.00;0.30;;;22.70;55.30;;;;;;5067996;28;20115;-48
2022/10/05 03:09:17;;;;;;;1.65;0.30;;;22.70;55.30;;;;;;5069067;28;20051;-48
2022/10/05 03:12:01;;;;;;;0.20;0.10;;;22.70;55.30;;;;;;5066072;28;20119;-50
2022/10/05 03:14:33;;;;;;;1.00;0.30;;;22.70;55.20;;;;;;5048518;28;20051;-48
2022/10/05 03:17:09;;;;;;;1.05;0.13;;;22.70;55.20;;;;;;5048424;28;20040;-50
2022/10/05 03:20:07;;;;;;;0.30;0.30;;;22.70;55.20;;;;;;5053946;28;20123;-50
2022/10/05 03:22:47;;;;;;;2.90;0.17;;;22.70;55.20;;;;;;5067606;28;20047;-50
2022/10/05 03:25:41;;;;;;;0.55;0.30;;;22.60;55.10;;;;;;5052587;28;20060;-51
2022/10/05 03:28:16;;;;;;;0.20;0.20;;;22.70;55.10;;;;;;5057771;28;20045;-50
2022/10/05 03:30:51;;;;;;;0.30;0.10;;;22.60;55.10;;;;;;5067164;28;20472;-49
2022/10/05 03:33:27;;;;;;;0.20;0.20;;;22.60;55.10;;;;;;5068758;28;20044;-48
2022/10/05 03:36:06;;;;;;;0.32;0.20;;;22.60;55.20;;;;;;5055894;28;20514;-49
2022/10/05 03:38:43;;;;;;;0.30;0.20;;;22.60;55.10;;;;;;5055464;28;20516;-49
2022/10/05 03:41:20;;;;;;;0.55;0.10;;;22.60;55.10;;;;;;5046047;28;20072;-49
2022/10/05 03:44:31;;;;;;;0.28;0.20;;;22.60;55.10;;;;;;5056114;28;20060;-49
2022/10/05 03:47:16;;;;;;;2.30;0.20;;;22.60;55.00;;;;;;5044410;28;20111;-52
2022/10/05 03:49:54;;;;;;;0.50;0.10;;;22.60;55.00;;;;;;5052907;28;20060;-48
2022/10/05 03:52:27;;;;;;;0.30;0.30;;;22.60;55.10;;;;;;5062139;28;20107;-50
2022/10/05 03:54:59;;;;;;;0.30;0.10;;;22.60;55.10;;;;;;5049175;28;20041;-49
2022/10/05 03:57:31;;;;;;;4.18;0.15;;;22.60;55.00;;;;;;5055627;28;20073;-52
2022/10/05 04:00:05;;;;;;;0.10;0.10;;;22.60;54.90;;;;;;5048388;28;20488;-50
2022/10/05 04:02:52;;;;;;;1.40;0.20;;;22.60;54.80;;;;;;5066651;28;20102;-53
2022/10/05 04:05:27;;;;;;;0.30;0.10;;;22.60;54.80;;;;;;5066835;28;20040;-49
2022/10/05 04:07:59;;;;;;;0.25;0.10;;;22.50;54.70;;;;;;5067044;28;20045;-48
2022/10/05 04:10:31;;;;;;;0.28;0.10;;;22.50;54.70;;;;;;5053791;28;20041;-48
2022/10/05 04:13:04;;;;;;;0.22;0.13;;;22.50;54.70;;;;;;5048909;28;20131;-49
2022/10/05 04:15:37;;;;;;;1.30;0.22;;;22.50;54.70;;;;;;5045104;28;20042;-52
2022/10/05 04:18:10;;;;;;;1.98;0.10;;;22.50;54.80;;;;;;5047227;28;20226;-51
2022/10/05 04:20:43;;;;;;;1.67;0.13;;;22.50;54.80;;;;;;5055697;28;20106;-50
2022/10/05 04:23:19;;;;;;;0.17;0.10;;;22.50;54.80;;;;;;5060502;28;20094;-52
2022/10/05 04:25:51;;;;;;;0.15;0.10;;;22.50;55.30;;;;;;5064033;28;20045;-52
2022/10/05 04:28:24;;;;;;;0.40;0.10;;;22.50;54.70;;;;;;5065075;28;20052;-49
2022/10/05 04:30:53;;;;;;;0.40;0.10;;;22.40;54.60;;;;;;5060658;28;20071;-51
2022/10/05 04:33:21;;;;;;;1.17;0.10;;;22.40;54.60;;;;;;5047320;28;20051;-48
2022/10/05 04:36:22;;;;;;;0.20;0.20;;;22.40;54.60;;;;;;5052734;28;20048;-49
2022/10/05 04:39:02;;;;;;;1.25;0.10;;;22.50;54.60;;;;;;5063803;28;20045;-49
2022/10/05 04:41:44;;;;;;;0.10;0.10;;;22.40;54.60;;;;;;5066033;28;20135;-51
2022/10/05 04:44:40;;;;;;;0.10;0.10;;;22.40;54.60;;;;;;5066037;28;20527;-49
2022/10/05 04:47:22;;;;;;;0.30;0.10;;;22.40;54.60;;;;;;5065942;28;20496;-48
2022/10/05 04:50:02;;;;;;;1.95;0.20;;;22.40;54.60;;;;;;5062632;28;20041;-49
2022/10/05 04:52:39;;;;;;;1.23;0.28;;;22.40;54.60;;;;;;5048853;28;20053;-52
2022/10/05 04:55:18;;;;;;;0.10;0.10;;;22.40;54.60;;;;;;5048155;28;20212;-49
2022/10/05 04:57:51;;;;;;;0.20;0.10;;;22.40;54.60;;;;;;5047023;28;20041;-49
2022/10/05 05:00:23;;;;;;;0.10;0.00;;;22.30;55.10;;;;;;5047289;28;20452;-52
2022/10/05 05:03:22;;;;;;;1.60;0.13;;;22.30;54.50;;;;;;5040743;28;20045;-54
2022/10/05 05:05:58;;;;;;;1.65;0.10;;;22.30;54.50;;;;;;5047885;28;20064;-51
2022/10/05 05:08:41;;;;;;;0.10;0.10;;;22.30;54.60;;;;;;5064123;28;20139;-50
2022/10/05 05:11:25;;;;;;;1.83;0.10;;;22.30;54.70;;;;;;5059519;28;20105;-50
2022/10/05 05:14:14;;;;;;;0.17;0.17;;;22.30;54.70;;;;;;5060316;28;20045;-50
2022/10/05 05:16:43;;;;;;;0.40;0.10;;;22.20;54.60;;;;;;5047791;28;20547;-54
2022/10/05 05:19:36;;;;;;;0.35;0.35;;;22.20;54.70;;;;;;5048930;28;20037;-52
2022/10/05 05:22:07;;;;;;;1.05;0.10;;;22.20;54.70;;;;;;5059238;28;20068;-52
2022/10/05 05:25:03;;;;;;;1.52;0.40;;;22.20;54.70;;;;;;5046388;28;20491;-50
2022/10/05 05:27:41;;;;;;;0.20;0.20;;;22.20;54.70;;;;;;5052811;28;20104;-52
2022/10/05 05:30:22;;;;;;;0.10;0.10;;;22.20;54.80;;;;;;5064116;28;20128;-51
2022/10/05 05:33:14;;;;;;;0.10;0.10;;;22.20;54.80;;;;;;5052965;28;20048;-51
2022/10/05 05:36:13;;;;;;;0.95;0.10;;;22.20;54.80;;;;;;5042857;28;20128;-54
2022/10/05 05:38:47;;;;;;;0.25;0.10;;;22.20;54.50;;;;;;5044565;28;20056;-54
2022/10/05 05:41:26;;;;;;;0.63;0.10;;;22.10;55.00;;;;;;5057634;28;20050;-56
2022/10/05 05:44:04;;;;;;;0.68;0.10;;;22.30;55.20;;;;;;5052830;28;20048;-58
2022/10/05 05:46:36;;;;;;;0.10;0.10;;;22.30;55.20;;;;;;5050637;28;20041;-57
2022/10/05 05:49:13;;;;;;;0.30;0.30;;;22.40;55.10;;;;;;5053162;28;20048;-57
2022/10/05 05:51:46;;;;;;;0.10;0.10;;;22.50;54.90;;;;;;5064978;28;20514;-65
2022/10/05 05:54:26;;;;;;;7.95;0.52;;;22.60;54.80;;;;;;5055119;28;20029;-57
2022/10/05 05:57:03;;;;;;;0.85;0.10;;;22.70;54.80;;;;;;5059827;28;20052;-55
2022/10/05 05:59:38;;;;;;;1.80;0.20;;;22.80;54.60;;;;;;5041954;28;20041;-57
2022/10/05 06:02:09;;;;;;;1.33;0.10;;;22.90;54.40;;;;;;5047215;28;20059;-53
2022/10/05 06:04:42;;;;;;;0.30;0.20;;;23.00;54.20;;;;;;5056364;28;20037;-55
2022/10/05 06:07:15;;;;;;;0.20;0.10;;;23.10;54.00;;;;;;5054995;28;20047;-58
2022/10/05 06:09:47;;;;;;;1.90;0.30;;;23.20;53.70;;;;;;5057335;28;20048;-65
2022/10/05 06:12:28;;;;;;;0.43;0.20;;;23.30;53.40;;;;;;5064389;28;20036;-59
2022/10/05 06:15:01;;;;;;;0.10;0.10;;;23.40;53.00;;;;;;5063875;28;20047;-54
2022/10/05 06:17:33;;;;;;;0.47;0.10;;;23.50;52.80;;;;;;5055313;28;20124;-59
2022/10/05 06:20:02;;;;;;;0.10;0.10;;;23.60;52.60;;;;;;5060986;28;20505;-59
2022/10/05 06:22:34;;;;;;;1.63;0.17;;;23.70;52.50;;;;;;5050186;28;20032;-53
2022/10/05 06:25:11;;;;;;;1.45;0.80;;;23.80;52.20;;;;;;5064132;28;20052;-53
2022/10/05 06:28:01;;;;;;;1.38;0.20;;;23.80;52.10;;;;;;5060904;28;20032;-52
2022/10/05 06:30:38;;;;;;;24.50;0.55;;;24.00;51.90;;;;;;5066657;28;20127;-62
2022/10/05 06:33:16;;;;;;;1.85;0.30;;;24.10;51.80;;;;;;5037380;28;20123;-61
2022/10/05 06:36:00;;;;;;;1.50;0.10;;;24.00;51.50;;;;;;5031288;28;20047;-59
2022/10/05 06:38:48;;;;;;;0.25;0.10;;;23.90;51.40;;;;;;5037550;28;20528;-62
2022/10/05 06:41:23;;;;;;;1.85;0.10;;;23.90;51.60;;;;;;5035575;28;20502;-62
2022/10/05 06:43:58;;;;;;;3.33;0.20;;;23.80;51.70;;;;;;5033314;28;20056;-61
2022/10/05 06:46:53;;;;;;;0.30;0.10;;;23.70;51.70;;;;;;5035071;28;20060;-62
2022/10/05 06:49:50;;;;;;;2.40;0.10;;;23.70;51.70;;;;;;5040979;28;20053;-60
2022/10/05 06:53:06;;;;;;;1.25;0.10;;;23.60;51.70;;;;;;5032120;28;20592;-60
2022/10/05 06:55:41;;;;;;;0.10;0.10;;;23.60;51.80;;;;;;5035058;28;20517;-60
2022/10/05 06:58:26;;;;;;;0.55;0.10;;;23.50;51.80;;;;;;5045156;28;20048;-61
2022/10/05 07:01:02;;;;;;;1.27;0.10;;;23.50;51.70;;;;;;5040196;28;20053;-60
2022/10/05 07:03:37;;;;;;;0.60;0.25;;;23.50;51.70;;;;;;5036947;28;20057;-56
2022/10/05 07:06:14;;;;;;;2.50;0.10;;;23.50;52.00;;;;;;5040035;28;20132;-58
2022/10/05 07:08:59;;;;;;;0.63;0.10;;;23.40;52.00;;;;;;5045637;28;20055;-58
2022/10/05 07:11:43;;;;;;;3.63;0.30;;;23.40;52.20;;;;;;5031794;28;21008;-57
2022/10/05 07:14:24;;;;;;;2.97;0.30;;;23.40;51.10;;;;;;5034657;28;20154;-61
2022/10/05 07:17:08;;;;;;;13.73;1.65;;;23.20;50.30;;;;;;5041517;28;20041;-52
2022/10/05 07:19:44;;;;;;;6.93;0.88;;;22.90;50.00;;;;;;5039326;28;20045;-57
2022/10/05 07:22:31;;;;;;;5.60;0.40;;;22.60;50.20;;;;;;5032996;28;20129;-51
2022/10/05 07:25:07;;;;;;;1.48;0.10;;;22.30;50.20;;;;;;5029442;28;20497;-50
2022/10/05 07:27:40;;;;;;;0.50;0.20;;;22.10;50.50;;;;;;5042881;28;20076;-54
2022/10/05 07:30:11;;;;;;;0.65;0.25;;;21.80;50.80;;;;;;5052608;28;20059;-61
2022/10/05 07:32:48;;;;;;;4.45;0.20;;;21.70;51.30;;;;;;5049123;28;20063;-57
2022/10/05 07:38:12;;;;;;;4.22;0.30;;;21.30;51.90;;;;;;5041684;28;20181;-59
2022/10/05 07:40:45;;;;;;;1.30;1.15;;;21.20;52.40;;;;;;5048353;28;20044;-55
2022/10/05 07:43:23;;;;;;;6.47;1.25;;;21.10;52.70;;;;;;5049695;28;20048;-56
2022/10/05 07:45:55;;;;;;;2.65;0.28;;;21.00;53.00;;;;;;5060267;28;20040;-54
2022/10/05 07:48:32;;;;;;;0.77;0.30;;;20.90;53.20;;;;;;5061664;28;20060;-63
2022/10/05 07:51:06;;;;;;;5.85;0.35;;;20.80;53.40;;;;;;5047618;28;20064;-63
2022/10/05 07:53:37;;;;;;;3.25;0.50;;;20.70;53.60;;;;;;5046490;28;20052;-56
2022/10/05 07:56:12;;;;;;;0.30;0.20;;;20.70;53.90;;;;;;5055443;28;20040;-57
2022/10/05 07:58:46;;;;;;;2.20;0.63;;;20.60;54.30;;;;;;5059823;28;20049;-57
2022/10/05 08:01:19;;;;;;;1.30;0.25;;;20.50;54.60;;;;;;5062573;28;20055;-56
2022/10/05 08:03:56;;;;;;;2.55;0.10;;;20.50;54.90;;;;;;5060282;28;20077;-54
2022/10/05 08:06:40;;;;;;;1.15;0.10;;;20.50;55.30;;;;;;5042676;28;20041;-52
2022/10/05 08:09:22;;;;;;;1.05;0.30;;;20.50;55.90;;;;;;5062031;28;20131;-54
2022/10/05 08:11:56;;;;;;;2.90;0.20;;;20.40;55.50;;;;;;5050078;28;20125;-52
2022/10/05 08:14:32;;;;;;;1.70;0.43;;;20.40;55.70;;;;;;5047240;28;20048;-55
2022/10/05 08:17:02;;;;;;;;;;;20.40;55.80;;;;;;5055238;28;20040;-52
2022/10/05 08:19:39;;;;;;;0.75;0.57;;;20.30;55.60;;;;;;5049446;28;19925;-54
2022/10/05 08:22:09;;;;;;;0.45;0.17;;;20.30;56.10;;;;;;5050264;28;20103;-52
2022/10/05 08:24:45;;;;;;;2.15;0.20;;;20.30;56.20;;;;;;5062416;28;20036;-55
2022/10/05 08:27:17;;;;;;;2.03;0.47;;;20.40;56.40;;;;;;5060555;28;20212;-55
2022/10/05 08:29:52;;;;;;;1.85;0.75;;;20.40;56.40;;;;;;5061193;28;20036;-56
2022/10/05 08:32:24;;;;;;;0.77;0.13;;;20.40;56.50;;;;;;5066495;28;20059;-52
2022/10/05 08:35:01;;;;;;;4.22;1.05;;;20.50;56.50;;;;;;5063073;28;20040;-56
2022/10/05 08:37:32;;;;;;;1.35;0.30;;;20.50;56.60;;;;;;5046779;28;20139;-55
2022/10/05 08:40:25;;;;;;;1.00;0.30;;;20.60;56.70;;;;;;5050380;28;20057;-53
2022/10/05 08:43:05;;;;;;;1.05;0.20;;;20.60;56.70;;;;;;5055169;28;20524;-56
2022/10/05 08:46:00;;;;;;;0.93;0.10;;;20.70;56.80;;;;;;5059588;28;20043;-55
2022/10/05 08:49:04;;;;;;;1.70;0.10;;;20.80;56.70;;;;;;5043676;28;20114;-57
2022/10/05 08:52:01;;;;;;;2.17;0.55;;;20.80;56.60;;;;;;5045224;28;20033;-53
2022/10/05 08:55:07;;;;;;;3.45;0.20;;;20.90;56.70;;;;;;5059811;28;20127;-57
2022/10/05 08:58:07;;;;;;;0.10;0.10;;;20.90;56.50;;;;;;5019105;28;20128;-51
2022/10/05 09:00:45;;;;;;;0.70;0.30;;;21.00;56.50;;;;;;5013012;28;20065;-57
2022/10/05 09:03:29;;;;;;;1.05;0.52;;;21.00;56.40;;;;;;5017765;28;20060;-55
2022/10/05 09:06:33;;;;;;;1.23;0.20;;;21.10;56.40;;;;;;5008853;28;20513;-60
2022/10/05 09:09:25;;;;;;;0.13;0.10;;;21.20;56.30;;;;;;5010349;28;20057;-54
2022/10/05 09:12:10;;;;;;;4.70;0.40;;;21.20;56.30;;;;;;5013827;28;20060;-51
2022/10/05 09:14:51;;;;;;;0.43;0.20;;;21.30;56.20;;;;;;5000036;28;20146;-55
2022/10/05 09:17:36;;;;;;;2.97;0.20;;;21.30;56.10;;;;;;5017991;28;20049;-58
2022/10/05 09:20:29;;;;;;;0.65;0.30;;;21.30;56.00;;;;;;4973266;28;20046;-55
2022/10/05 09:23:08;;;;;;;2.45;0.32;;;21.40;55.80;;;;;;4997649;28;20046;-53
2022/10/05 09:25:53;;;;;;;2.47;0.15;;;21.40;56.10;;;;;;5004844;28;20050;-53
2022/10/05 09:28:25;;;;;;;2.80;0.10;;;21.60;56.20;;;;;;5012558;28;20056;-47
2022/10/05 09:30:58;;;;;;;4.57;0.55;;;21.80;56.00;;;;;;5024117;28;20121;-48
2022/10/05 09:34:03;;;;;;;0.45;0.10;;;22.00;55.70;;;;;;5007314;28;20553;-49
2022/10/05 09:36:59;;;;;;;1.73;0.10;;;22.20;55.20;;;;;;5053776;28;20037;-50
2022/10/05 09:40:01;;;;;;;0.10;0.10;;;22.40;54.80;;;;;;5047603;28;20059;-47
2022/10/05 09:43:02;;;;;;;0.85;0.10;;;22.50;54.40;;;;;;5043128;28;20049;-51
2022/10/05 09:45:48;;;;;;;0.20;0.20;;;22.70;54.00;;;;;;5051885;28;20559;-50
2022/10/05 09:48:53;;;;;;;3.55;0.40;;;22.80;53.70;;;;;;5056503;28;20055;-48
2022/10/05 09:51:53;;;;;;;1.02;0.45;;;22.90;53.30;;;;;;5059837;28;20055;-48
2022/10/05 09:55:01;;;;;;;2.90;0.20;;;23.00;52.90;;;;;;5064579;28;20043;-46
2022/10/05 09:58:09;;;;;;;0.60;0.28;;;23.10;52.60;;;;;;5067617;28;20055;-49
2022/10/05 10:00:41;;;;;;;;;;;23.20;52.30;;;;;;5070952;28;20053;-47
2022/10/05 10:03:37;;;;;;;2.05;0.32;;;23.10;52.40;;;;;;5061298;28;19958;-48
2022/10/05 10:06:19;;;;;;;2.35;0.15;;;23.30;52.20;;;;;;5043293;28;20087;-46
2022/10/05 10:08:56;;;;;;;0.90;0.10;;;23.30;51.90;;;;;;5049017;28;20595;-46
2022/10/05 10:11:41;;;;;;;0.80;0.10;;;23.40;51.60;;;;;;5070273;28;20539;-48
2022/10/05 10:14:32;;;;;;;3.65;0.10;;;23.50;51.40;;;;;;5055812;28;20535;-47
2022/10/05 10:17:23;;;;;;;0.20;0.10;;;23.50;50.90;;;;;;5070188;28;20118;-49
2022/10/05 10:20:10;;;;;;;1.02;0.10;;;23.50;50.70;;;;;;5051466;28;20676;-50
2022/10/05 10:22:58;;;;;;;0.10;0.10;;;23.60;50.60;;;;;;5051094;28;20068;-49
2022/10/05 10:25:47;;;;;;;0.52;0.52;;;23.70;50.30;;;;;;5067974;28;20116;-48
2022/10/05 10:28:34;;;;;;;0.13;0.10;;;23.70;49.90;;;;;;5057134;28;20421;-47
2022/10/05 10:31:21;;;;;;;0.00;0.00;;;23.70;49.40;;;;;;5050590;28;20041;-47
2022/10/05 10:34:07;;;;;;;0.00;0.00;;;23.70;49.30;;;;;;5050943;28;20049;-47
2022/10/05 10:36:51;;;;;;;0.13;0.13;;;23.80;49.50;;;;;;5064704;28;20528;-48
2022/10/05 10:39:29;;;;;;;0.93;0.10;;;23.80;49.40;;;;;;5070151;28;20131;-47
2022/10/05 10:42:15;;;;;;;1.10;0.00;;;23.80;49.60;;;;;;5066248;28;20075;-51
2022/10/05 10:44:59;;;;;;;0.00;0.00;;;23.90;49.70;;;;;;5061998;28;20462;-50
2022/10/05 10:47:47;;;;;;;0.13;0.10;;;23.90;50.00;;;;;;5050824;28;20681;-47
2022/10/05 10:50:38;;;;;;;0.60;0.10;;;24.00;50.00;;;;;;5050375;28;20435;-48
2022/10/05 10:53:22;;;;;;;1.20;0.10;;;24.00;50.30;;;;;;5048333;28;20057;-47
2022/10/05 10:56:00;;;;;;;0.22;0.10;;;24.00;50.40;;;;;;5062810;28;20123;-50
2022/10/05 10:58:51;;;;;;;0.17;0.10;;;24.00;50.50;;;;;;5069393;28;20123;-48
2022/10/05 11:01:31;;;;;;;0.10;0.10;;;24.10;50.50;;;;;;5069013;28;20044;-47
2022/10/05 11:04:38;;;;;;;0.55;0.10;;;24.10;50.30;;;;;;5052121;28;20543;-46
2022/10/05 11:07:37;;;;;;;5.18;0.32;;;24.10;50.30;;;;;;5056012;28;20036;-47
2022/10/05 11:10:40;;;;;;;0.50;0.10;;;24.10;50.20;;;;;;5065719;28;20495;-47
2022/10/05 11:13:31;;;;;;;0.10;0.10;;;24.20;50.40;;;;;;5006509;28;20053;-48
2022/10/05 11:16:33;;;;;;;0.93;0.20;;;24.20;50.20;;;;;;5006884;28;20077;-48
2022/10/05 11:19:20;;;;;;;0.30;0.10;;;24.20;50.20;;;;;;4985373;28;20138;-47
2022/10/05 11:21:57;;;;;;;;;;;24.20;50.50;;;;;;4987518;28;20101;-47
2022/10/05 11:24:42;;;;;;;0.13;0.10;;;24.20;50.50;;;;;;5003033;28;19973;-47
2022/10/05 11:27:31;;;;;;;0.10;0.10;;;24.20;50.60;;;;;;5002204;28;20042;-47
2022/10/05 11:30:24;;;;;;;0.22;0.20;;;24.30;50.50;;;;;;4984795;28;20427;-51
2022/10/05 11:33:39;;;;;;;0.10;0.10;;;24.30;51.10;;;;;;5000383;28;20056;-50
2022/10/05 11:36:34;;;;;;;0.08;0.03;;;24.40;50.50;;;;;;4998858;28;20046;-49
2022/10/05 11:39:29;;;;;;;0.13;0.10;;;24.40;50.70;;;;;;5006404;28;20054;-46
2022/10/05 11:42:31;;;;;;;1.55;0.30;;;24.40;50.70;;;;;;4981469;28;20054;-46
2022/10/05 11:45:21;;;;;;;0.10;0.00;;;24.40;50.80;;;;;;4987861;28;20046;-48
2022/10/05 11:48:16;;;;;;;0.60;0.10;;;24.50;50.90;;;;;;4987737;28;20050;-46
2022/10/05 11:50:51;;;;;;;0.90;0.10;;;24.50;50.90;;;;;;5024153;28;20595;-47
2022/10/05 11:53:25;;;;;;;0.55;0.10;;;24.60;51.00;;;;;;5056445;28;20037;-49
2022/10/05 11:56:03;;;;;;;0.65;0.03;;;24.60;51.00;;;;;;5042937;28;20045;-49
2022/10/05 11:58:36;;;;;;;1.15;0.05;;;24.60;51.00;;;;;;5056482;28;20044;-47
2022/10/05 12:01:12;;;;;;;0.05;0.05;;;24.70;51.00;;;;;;5049436;28;20566;-51
2022/10/05 12:03:50;;;;;;;0.45;0.10;;;24.70;51.00;;;;;;5052427;28;20127;-47
2022/10/05 12:06:37;;;;;;;0.90;0.10;;;24.70;51.00;;;;;;5067389;28;20123;-48
2022/10/05 12:09:19;;;;;;;0.20;0.10;;;24.80;50.90;;;;;;5043811;28;20043;-48
2022/10/05 12:11:59;;;;;;;1.00;0.10;;;24.80;51.10;;;;;;5040171;28;20123;-50
2022/10/05 12:14:36;;;;;;;0.25;0.10;;;24.90;51.50;;;;;;5043661;28;20136;-49
2022/10/05 12:17:10;;;;;;;1.30;0.10;;;24.90;51.60;;;;;;5049873;28;20045;-58
2022/10/05 12:19:43;;;;;;;0.52;0.10;;;24.90;51.60;;;;;;5053052;28;20504;-51
2022/10/05 12:22:17;;;;;;;0.52;0.10;;;24.90;51.80;;;;;;5052687;28;20061;-52
2022/10/05 12:25:02;;;;;;;1.35;0.00;;;25.00;51.90;;;;;;5062757;28;20052;-55
2022/10/05 12:27:37;;;;;;;0.60;0.10;;;25.00;51.80;;;;;;5054840;28;20120;-56
2022/10/05 12:30:14;;;;;;;0.10;0.10;;;25.10;51.80;;;;;;5059895;28;20568;-53
2022/10/05 12:32:52;;;;;;;1.13;0.10;;;25.10;51.80;;;;;;5053343;28;20059;-56
2022/10/05 12:35:27;;;;;;;1.58;0.10;;;25.20;51.80;;;;;;5050552;28;20041;-58
2022/10/05 12:38:00;;;;;;;1.75;0.13;;;25.20;51.90;;;;;;5051353;28;20049;-52
2022/10/05 12:40:37;;;;;;;3.28;0.17;;;25.30;51.90;;;;;;5049915;28;20045;-51
2022/10/05 12:43:14;;;;;;;1.08;0.10;;;25.30;51.80;;;;;;5048845;28;20069;-51
2022/10/05 12:45:56;;;;;;;1.45;0.10;;;25.40;52.30;;;;;;5042035;28;20133;-54
2022/10/05 12:48:55;;;;;;;0.22;0.10;;;25.40;51.60;;;;;;5050734;28;20572;-53
2022/10/05 12:51:32;;;;;;;5.40;0.20;;;25.50;51.60;;;;;;5057013;28;20037;-49
2022/10/05 12:54:08;;;;;;;1.65;0.00;;;25.50;51.60;;;;;;5051006;28;20487;-50
2022/10/05 12:56:41;;;;;;;;;;;25.60;51.60;;;;;;5062949;28;20068;-50
2022/10/05 12:59:20;;;;;;;0.52;0.00;;;25.60;51.50;;;;;;5057838;28;20035;-50
2022/10/05 13:01:57;;;;;;;0.40;0.10;;;25.60;51.50;;;;;;5055603;28;20119;-59
2022/10/05 13:04:38;;;;;;;0.20;0.17;;;25.70;51.40;;;;;;5052139;28;20051;-57
2022/10/05 13:07:21;;;;;;;2.53;0.10;;;25.80;51.30;;;;;;5055536;28;20036;-54
2022/10/05 13:09:57;;;;;;;1.85;0.20;;;25.90;51.20;;;;;;5057648;28;20125;-53
2022/10/05 13:12:35;;;;;;;0.30;0.20;;;25.90;51.20;;;;;;5050134;28;20040;-57
2022/10/05 13:15:13;;;;;;;1.50;0.10;;;26.00;51.60;;;;;;5063394;28;20048;-57
2022/10/05 13:17:49;;;;;;;0.38;0.00;;;26.10;51.30;;;;;;5055881;28;20043;-49
2022/10/05 13:20:26;;;;;;;0.80;0.10;;;26.20;51.20;;;;;;5056093;28;20078;-51
2022/10/05 13:23:00;;;;;;;5.32;0.15;;;26.20;49.70;;;;;;5050244;28;20063;-50
2022/10/05 13:25:32;;;;;;;1.80;0.10;;;26.20;47.70;;;;;;5051874;28;20072;-48
2022/10/05 13:28:13;;;;;;;2.88;0.10;;;26.10;47.20;;;;;;5059870;28;20951;-48
2022/10/05 13:30:50;;;;;;;2.65;0.40;;;26.00;46.70;;;;;;5049279;28;20041;-48
2022/10/05 13:33:36;;;;;;;2.38;0.22;;;25.90;46.30;;;;;;5034970;28;20045;-49
2022/10/05 13:36:10;;;;;;;2.55;0.10;;;25.90;46.40;;;;;;5044496;28;20091;-48
2022/10/05 13:38:49;;;;;;;2.38;0.15;;;25.80;46.30;;;;;;5063148;28;20051;-47
2022/10/05 13:41:26;;;;;;;1.60;0.20;;;25.70;46.20;;;;;;5061004;28;20036;-47
2022/10/05 13:44:04;;;;;;;0.70;0.30;;;25.70;46.10;;;;;;5059585;28;20135;-47
2022/10/05 13:46:38;;;;;;;2.85;0.10;;;25.60;46.00;;;;;;5062701;28;20037;-47
2022/10/05 13:49:21;;;;;;;1.30;0.28;;;25.60;46.00;;;;;;5052348;28;20523;-50
2022/10/05 13:51:57;;;;;;;7.65;0.22;;;25.60;46.00;;;;;;5066968;28;20450;-48
2022/10/05 13:54:37;;;;;;;0.20;0.20;;;25.60;46.00;;;;;;5058373;28;20052;-48
2022/10/05 13:57:16;;;;;;;3.60;1.05;;;25.60;46.00;;;;;;5059893;28;20029;-52